createdAt,value
2023-04-13T00:01:16.034Z,8.60
2023-04-13T00:03:45.909Z,8.70
2023-04-13T00:06:13.416Z,8.60
2023-04-13T00:08:43.632Z,8.70
2023-04-13T00:11:11.652Z,8.70
2023-04-13T00:13:43.029Z,8.70
2023-04-13T00:16:11.045Z,8.70
2023-04-13T00:18:38.516Z,8.80
2023-04-13T00:21:06.217Z,8.80
2023-04-13T00:23:35.933Z,8.90
2023-04-13T00:26:03.593Z,8.90
2023-04-13T00:28:30.828Z,8.90
2023-04-13T00:30:59.733Z,9.00
2023-04-13T00:33:27.108Z,9.00
2023-04-13T00:35:54.379Z,9.00
2023-04-13T00:38:24.009Z,9.10
2023-04-13T00:40:55.986Z,9.10
2023-04-13T00:43:23.604Z,9.10
2023-04-13T00:45:51.749Z,9.10
2023-04-13T00:48:19.189Z,9.20
2023-04-13T00:50:48.345Z,9.20
2023-04-13T00:53:16.468Z,9.20
2023-04-13T00:55:44.769Z,9.20
2023-04-13T00:58:13.345Z,9.20
2023-04-13T01:00:43.409Z,9.20
2023-04-13T01:03:12.657Z,9.20
2023-04-13T01:05:50.485Z,9.30
2023-04-13T01:08:43.272Z,9.20
2023-04-13T01:11:18.733Z,9.30
2023-04-13T01:14:09.115Z,9.30
2023-04-13T01:16:44.241Z,9.20
2023-04-13T01:19:46.496Z,9.20
2023-04-13T01:22:15.706Z,9.20
2023-04-13T01:24:55.323Z,9.10
2023-04-13T01:27:47.239Z,9.10
2023-04-13T01:30:18.238Z,9.20
2023-04-13T01:32:46.265Z,9.20
2023-04-13T01:35:13.958Z,9.20
2023-04-13T01:37:43.244Z,9.20
2023-04-13T01:40:13.624Z,9.20
2023-04-13T01:42:45.953Z,9.20
2023-04-13T01:45:27.402Z,9.30
2023-04-13T01:48:15.488Z,9.30
2023-04-13T01:51:07.389Z,9.30
2023-04-13T01:54:11.186Z,9.30
2023-04-13T01:56:40.161Z,9.30
2023-04-13T01:59:08.477Z,9.30
2023-04-13T02:01:39.103Z,9.30
2023-04-13T02:04:07.953Z,9.30
2023-04-13T02:06:37.269Z,9.40
2023-04-13T02:09:08.553Z,9.30
2023-04-13T02:11:37.308Z,9.30
2023-04-13T02:14:06.427Z,9.40
2023-04-13T02:16:34.494Z,9.40
2023-04-13T02:19:01.994Z,9.30
2023-04-13T02:21:29.464Z,9.40
2023-04-13T02:23:57.530Z,9.40
2023-04-13T02:26:26.232Z,9.40
2023-04-13T02:28:53.604Z,9.40
2023-04-13T02:31:23.173Z,9.40
2023-04-13T02:33:51.790Z,9.40
2023-04-13T02:36:19.167Z,9.40
2023-04-13T02:38:54.706Z,9.40
2023-04-13T02:41:34.102Z,9.40
2023-04-13T02:44:01.667Z,9.40
2023-04-13T02:46:34.840Z,9.40
2023-04-13T02:49:06.905Z,9.40
2023-04-13T02:51:40.437Z,9.40
2023-04-13T02:54:11.754Z,9.40
2023-04-13T02:56:43.279Z,9.40
2023-04-13T02:59:10.746Z,9.40
2023-04-13T03:01:38.174Z,9.40
2023-04-13T03:04:07.104Z,9.40
2023-04-13T03:06:35.133Z,9.40
2023-04-13T03:09:02.887Z,9.40
2023-04-13T03:11:39.832Z,9.40
2023-04-13T03:14:22.014Z,9.40
2023-04-13T03:16:55.833Z,9.40
2023-04-13T03:19:26.879Z,9.40
2023-04-13T03:21:54.391Z,9.40
2023-04-13T03:24:28.098Z,9.50
2023-04-13T03:26:58.526Z,9.50
2023-04-13T03:29:32.959Z,9.50
2023-04-13T03:32:00.617Z,9.40
2023-04-13T03:34:31.778Z,9.40
2023-04-13T03:37:06.296Z,9.40
2023-04-13T03:39:33.505Z,9.40
2023-04-13T03:42:02.518Z,9.40
2023-04-13T03:44:31.238Z,9.50
2023-04-13T03:46:59.214Z,9.40
2023-04-13T03:49:32.042Z,9.40
2023-04-13T03:51:59.394Z,9.50
2023-04-13T03:54:30.496Z,9.50
2023-04-13T03:57:00.703Z,9.50
2023-04-13T03:59:31.780Z,9.50
2023-04-13T04:01:59.765Z,9.50
2023-04-13T04:04:27.342Z,9.50
2023-04-13T04:06:54.665Z,9.50
2023-04-13T04:09:21.872Z,9.50
2023-04-13T04:11:49.143Z,9.50
2023-04-13T04:14:25.096Z,9.50
2023-04-13T04:17:10.223Z,9.50
2023-04-13T04:19:37.764Z,9.60
2023-04-13T04:22:07.253Z,9.60
2023-04-13T04:24:38.976Z,9.50
2023-04-13T04:27:06.283Z,9.50
2023-04-13T04:29:36.474Z,9.50
2023-04-13T04:32:25.261Z,9.60
2023-04-13T04:34:54.450Z,9.50
2023-04-13T04:37:25.964Z,9.50
2023-04-13T04:40:10.935Z,9.60
2023-04-13T04:42:39.528Z,9.60
2023-04-13T04:45:15.128Z,9.60
2023-04-13T04:47:45.091Z,9.60
2023-04-13T04:50:22.107Z,9.60
2023-04-13T04:52:56.214Z,9.60
2023-04-13T04:55:25.224Z,9.60
2023-04-13T04:57:52.442Z,9.60
2023-04-13T05:00:22.137Z,9.60
2023-04-13T05:03:00.945Z,9.50
2023-04-13T05:05:30.746Z,9.50
2023-04-13T05:08:01.542Z,9.50
2023-04-13T05:10:29.669Z,9.50
2023-04-13T05:12:58.255Z,9.50
2023-04-13T05:15:26.852Z,9.50
2023-04-13T05:17:55.139Z,9.40
2023-04-13T05:20:22.630Z,9.40
2023-04-13T05:22:55.452Z,9.40
2023-04-13T05:25:22.832Z,9.40
2023-04-13T05:27:50.894Z,9.40
2023-04-13T05:30:19.303Z,9.40
2023-04-13T05:32:46.755Z,9.50
2023-04-13T05:35:14.084Z,9.50
2023-04-13T05:37:44.538Z,9.50
2023-04-13T05:40:18.558Z,9.60
2023-04-13T05:42:46.709Z,9.50
2023-04-13T05:45:17.885Z,9.50
2023-04-13T05:47:59.096Z,9.50
2023-04-13T05:50:28.036Z,9.50
2023-04-13T05:52:57.260Z,9.50
2023-04-13T05:55:26.370Z,9.50
2023-04-13T05:58:01.829Z,9.40
2023-04-13T06:00:29.687Z,9.40
2023-04-13T06:03:03.636Z,9.40
2023-04-13T06:05:33.736Z,9.40
2023-04-13T06:08:02.462Z,9.40
2023-04-13T06:10:30.662Z,9.40
2023-04-13T06:12:57.941Z,9.40
2023-04-13T06:15:25.748Z,9.50
2023-04-13T06:17:54.329Z,9.50
2023-04-13T06:20:21.874Z,9.50
2023-04-13T06:22:50.078Z,9.50
2023-04-13T06:25:20.965Z,9.60
2023-04-13T06:27:50.030Z,9.60
2023-04-13T06:30:18.984Z,9.70
2023-04-13T06:32:47.464Z,9.70
2023-04-13T06:35:18.085Z,9.70
2023-04-13T06:37:48.545Z,9.70
2023-04-13T06:40:23.367Z,9.80
2023-04-13T06:42:59.236Z,9.80
2023-04-13T06:45:33.786Z,9.80
2023-04-13T06:48:07.040Z,9.80
2023-04-13T06:50:34.793Z,9.80
2023-04-13T06:53:04.496Z,9.90
2023-04-13T06:55:31.880Z,9.90
2023-04-13T06:57:59.383Z,9.90
2023-04-13T07:00:29.961Z,10.00
2023-04-13T07:02:59.400Z,10.00
2023-04-13T07:05:27.055Z,10.10
2023-04-13T07:07:59.003Z,10.10
2023-04-13T07:10:27.261Z,10.10
2023-04-13T07:12:56.985Z,10.10
2023-04-13T07:15:30.285Z,10.10
2023-04-13T07:17:57.845Z,10.20
2023-04-13T07:20:26.929Z,10.30
2023-04-13T07:22:54.537Z,10.30
2023-04-13T07:25:22.090Z,10.40
2023-04-13T07:27:50.590Z,10.50
2023-04-13T07:30:18.484Z,10.50
2023-04-13T07:32:47.831Z,10.60
2023-04-13T07:35:15.676Z,10.70
2023-04-13T07:37:46.803Z,10.70
2023-04-13T07:40:15.226Z,10.80
2023-04-13T07:42:49.311Z,10.80
2023-04-13T07:45:19.934Z,10.80
2023-04-13T07:47:48.632Z,10.90
2023-04-13T07:50:17.886Z,10.90
2023-04-13T07:52:46.201Z,10.80
2023-04-13T07:55:14.390Z,10.80
2023-04-13T07:57:47.174Z,10.80
2023-04-13T08:00:17.500Z,10.90
2023-04-13T08:02:48.356Z,10.90
2023-04-13T08:05:20.826Z,10.90
2023-04-13T08:07:49.588Z,11.00
2023-04-13T08:10:17.044Z,11.00
2023-04-13T08:12:44.828Z,11.00
2023-04-13T08:15:16.082Z,11.00
2023-04-13T08:17:44.157Z,11.00
2023-04-13T08:20:13.545Z,11.00
2023-04-13T08:22:41.069Z,11.00
2023-04-13T08:25:08.447Z,11.00
2023-04-13T08:27:35.837Z,11.00
2023-04-13T08:30:04.093Z,11.00
2023-04-13T08:32:42.622Z,11.00
2023-04-13T08:35:11.629Z,11.00
2023-04-13T08:37:39.640Z,11.00
2023-04-13T08:40:12.170Z,11.10
2023-04-13T08:42:41.411Z,11.10
2023-04-13T08:45:10.825Z,11.10
2023-04-13T08:47:43.103Z,11.20
2023-04-13T08:50:12.222Z,11.20
2023-04-13T08:52:45.693Z,11.30
2023-04-13T08:55:15.825Z,11.40
2023-04-13T08:57:50.583Z,11.40
2023-04-13T09:00:19.515Z,11.50
2023-04-13T09:03:03.878Z,11.40
2023-04-13T09:05:39.043Z,11.40
2023-04-13T09:08:08.063Z,11.50
2023-04-13T09:10:37.711Z,11.50
2023-04-13T09:13:05.800Z,11.50
2023-04-13T09:15:33.767Z,11.60
2023-04-13T09:18:11.095Z,11.70
2023-04-13T09:20:43.130Z,11.80
2023-04-13T09:23:15.145Z,11.80
2023-04-13T09:25:44.087Z,11.80
2023-04-13T09:28:19.153Z,11.80
2023-04-13T09:30:46.591Z,11.70
2023-04-13T09:33:16.926Z,11.60
2023-04-13T09:35:44.289Z,11.60
2023-04-13T09:38:15.287Z,11.60
2023-04-13T09:40:49.597Z,11.70
2023-04-13T09:43:17.097Z,11.80
2023-04-13T09:45:44.517Z,11.90
2023-04-13T09:48:21.318Z,12.00
2023-04-13T09:51:01.863Z,12.10
2023-04-13T09:53:43.256Z,12.20
2023-04-13T09:56:10.769Z,12.30
2023-04-13T09:58:45.712Z,12.40
2023-04-13T10:01:15.441Z,12.50
2023-04-13T10:03:43.714Z,12.60
2023-04-13T10:06:11.237Z,12.80
2023-04-13T10:08:46.242Z,12.90
2023-04-13T10:11:15.234Z,13.00
2023-04-13T10:13:52.138Z,13.00
2023-04-13T10:16:43.862Z,12.90
2023-04-13T10:19:32.822Z,12.90
2023-04-13T10:22:00.431Z,12.80
2023-04-13T10:24:28.860Z,12.70
2023-04-13T10:26:58.625Z,12.70
2023-04-13T10:29:32.935Z,12.70
2023-04-13T10:32:03.791Z,12.70
2023-04-13T10:34:34.307Z,12.80
2023-04-13T10:37:06.264Z,12.90
2023-04-13T10:39:36.126Z,13.00
2023-04-13T10:42:06.517Z,13.00
2023-04-13T10:44:48.141Z,13.00
2023-04-13T10:47:20.663Z,13.00
2023-04-13T10:49:49.208Z,13.00
2023-04-13T10:52:17.079Z,13.00
2023-04-13T10:54:45.108Z,13.10
2023-04-13T10:57:12.726Z,13.10
2023-04-13T10:59:57.078Z,13.10
2023-04-13T11:02:31.623Z,13.20
2023-04-13T11:04:59.660Z,13.30
2023-04-13T11:07:27.114Z,13.30
2023-04-13T11:10:03.688Z,13.30
2023-04-13T11:12:31.681Z,13.20
2023-04-13T11:14:59.386Z,13.10
2023-04-13T11:17:27.259Z,13.10
2023-04-13T11:19:56.144Z,13.10
2023-04-13T11:22:25.642Z,13.10
2023-04-13T11:24:53.202Z,13.30
2023-04-13T11:27:22.037Z,13.40
2023-04-13T11:30:09.257Z,13.50
2023-04-13T11:32:41.800Z,13.50
2023-04-13T11:35:12.499Z,13.60
2023-04-13T11:37:41.182Z,13.60
2023-04-13T11:40:10.987Z,13.70
2023-04-13T11:42:41.009Z,13.90
2023-04-13T11:45:09.300Z,14.00
2023-04-13T11:47:36.697Z,14.20
2023-04-13T11:50:05.402Z,14.30
2023-04-13T11:52:34.371Z,14.30
2023-04-13T11:55:15.372Z,14.40
2023-04-13T11:57:49.987Z,14.40
2023-04-13T12:00:23.945Z,14.40
2023-04-13T12:05:30.125Z,14.20
2023-04-13T12:07:59.000Z,14.20
2023-04-13T12:10:40.600Z,14.30
2023-04-13T12:16:05.252Z,14.50
2023-04-13T12:18:46.123Z,14.60
2023-04-13T12:21:19.933Z,14.50
2023-04-13T12:23:58.029Z,14.50
2023-04-13T12:29:08.891Z,14.50
2023-04-13T12:31:39.711Z,14.60
2023-04-13T12:34:07.973Z,14.70
2023-04-13T12:36:36.818Z,14.90
2023-04-13T12:39:04.893Z,15.00
2023-04-13T12:41:33.143Z,15.10
2023-04-13T12:44:01.331Z,15.10
2023-04-13T12:46:28.953Z,15.20
2023-04-13T12:48:56.439Z,15.20
2023-04-13T12:51:23.751Z,15.20
2023-04-13T12:53:51.430Z,15.30
2023-04-13T12:56:18.817Z,15.30
2023-04-13T12:58:46.067Z,15.40
2023-04-13T13:01:14.052Z,15.50
2023-04-13T13:03:41.728Z,15.60
2023-04-13T13:06:09.187Z,15.60
2023-04-13T13:08:39.877Z,15.70
2023-04-13T13:11:08.410Z,15.80
2023-04-13T13:13:35.744Z,15.80
2023-04-13T13:16:03.540Z,15.90
2023-04-13T13:18:46.531Z,15.90
2023-04-13T13:21:18.116Z,15.90
2023-04-13T13:23:46.048Z,16.30
2023-04-13T13:26:23.809Z,16.80
2023-04-13T13:28:52.431Z,17.10
2023-04-13T13:31:20.228Z,17.40
2023-04-13T13:33:47.559Z,17.80
2023-04-13T13:36:15.460Z,17.90
2023-04-13T13:38:43.365Z,17.90
2023-04-13T13:41:11.029Z,18.00
2023-04-13T13:43:39.149Z,18.10
2023-04-13T13:46:07.012Z,18.00
2023-04-13T13:48:36.542Z,18.10
2023-04-13T13:51:17.199Z,18.10
2023-04-13T13:53:44.663Z,18.50
2023-04-13T13:56:12.000Z,19.00
2023-04-13T13:58:39.288Z,19.60
2023-04-13T14:01:06.708Z,20.00
2023-04-13T14:03:34.117Z,20.40
2023-04-13T14:06:01.992Z,20.80
2023-04-13T14:08:29.433Z,21.30
2023-04-13T14:10:56.969Z,21.80
2023-04-13T14:13:24.260Z,22.30
2023-04-13T14:15:51.778Z,22.80
2023-04-13T14:18:19.093Z,23.20
2023-04-13T14:20:46.406Z,23.50
2023-04-13T14:23:13.682Z,23.50
2023-04-13T14:25:41.398Z,23.20
2023-04-13T14:28:09.028Z,22.60
2023-04-13T14:30:36.634Z,21.80
2023-04-13T14:33:04.352Z,21.10
2023-04-13T14:35:31.883Z,20.50
2023-04-13T14:37:59.650Z,20.00
2023-04-13T14:40:28.192Z,20.00
2023-04-13T14:42:55.539Z,20.80
2023-04-13T14:45:23.573Z,21.50
2023-04-13T14:47:53.658Z,21.50
2023-04-13T14:50:21.273Z,21.00
2023-04-13T14:52:48.758Z,20.50
2023-04-13T14:55:17.836Z,20.60
2023-04-13T14:57:45.883Z,21.50
2023-04-13T15:00:33.665Z,22.60
2023-04-13T15:03:02.304Z,23.70
2023-04-13T15:05:31.489Z,25.10
2023-04-13T15:07:59.117Z,26.30
2023-04-13T15:10:28.248Z,26.80
2023-04-13T15:12:55.630Z,27.50
2023-04-13T15:15:22.825Z,27.00
2023-04-13T15:17:50.423Z,25.90
2023-04-13T15:20:17.830Z,24.60
2023-04-13T15:22:45.056Z,23.30
2023-04-13T15:25:12.480Z,22.30
2023-04-13T15:27:39.760Z,21.60
2023-04-13T15:30:07.740Z,21.60
2023-04-13T15:32:36.081Z,22.10
2023-04-13T15:35:03.580Z,22.50
2023-04-13T15:37:30.969Z,22.50
2023-04-13T15:39:58.282Z,22.20
2023-04-13T15:42:26.370Z,22.10
2023-04-13T15:44:55.024Z,21.70
2023-04-13T15:47:22.856Z,21.40
2023-04-13T15:49:50.264Z,20.90
2023-04-13T15:52:17.534Z,20.50
2023-04-13T15:54:44.761Z,20.10
2023-04-13T15:57:12.236Z,19.90
2023-04-13T15:59:39.640Z,19.50
2023-04-13T16:02:07.553Z,19.20
2023-04-13T16:04:35.418Z,18.70
2023-04-13T16:07:12.944Z,18.30
2023-04-13T16:09:43.575Z,18.10
2023-04-13T16:12:11.665Z,17.90
2023-04-13T16:14:39.312Z,17.60
2023-04-13T16:17:07.703Z,17.60
2023-04-13T16:19:35.649Z,17.60
2023-04-13T16:22:09.789Z,17.60
2023-04-13T16:24:37.808Z,17.40
2023-04-13T16:27:06.293Z,17.40
2023-04-13T16:29:33.789Z,17.20
2023-04-13T16:32:01.295Z,17.00
2023-04-13T16:34:29.425Z,16.80
2023-04-13T16:36:57.393Z,16.80
2023-04-13T16:39:24.771Z,16.80
2023-04-13T16:41:52.130Z,16.70
2023-04-13T16:44:19.370Z,16.60
2023-04-13T16:46:46.717Z,16.60
2023-04-13T16:49:14.111Z,16.50
2023-04-13T16:51:41.344Z,16.50
2023-04-13T16:54:11.489Z,16.40
2023-04-13T16:56:38.744Z,16.30
2023-04-13T16:59:06.687Z,16.20
2023-04-13T17:01:36.113Z,16.10
2023-04-13T17:04:05.501Z,15.90
2023-04-13T17:06:37.280Z,15.90
2023-04-13T17:09:07.221Z,15.90
2023-04-13T17:11:34.539Z,15.90
2023-04-13T17:14:01.853Z,15.80
2023-04-13T17:16:29.388Z,15.80
2023-04-13T17:18:57.019Z,15.70
2023-04-13T17:21:24.528Z,15.60
2023-04-13T17:23:51.873Z,15.60
2023-04-13T17:26:19.340Z,15.50
2023-04-13T17:28:46.634Z,15.30
2023-04-13T17:31:14.451Z,15.20
2023-04-13T17:33:41.732Z,15.10
2023-04-13T17:36:09.379Z,15.00
2023-04-13T17:38:36.781Z,14.90
2023-04-13T17:41:05.501Z,14.80
2023-04-13T17:43:33.338Z,14.70
2023-04-13T17:46:00.672Z,14.70
2023-04-13T17:48:28.113Z,14.70
2023-04-13T17:50:55.369Z,14.60
2023-04-13T17:53:23.826Z,14.60
2023-04-13T17:55:51.112Z,14.60
2023-04-13T17:58:18.371Z,14.60
2023-04-13T18:00:45.783Z,14.50
2023-04-13T18:03:14.010Z,14.50
2023-04-13T18:05:44.358Z,14.50
2023-04-13T18:08:11.723Z,14.50
2023-04-13T18:10:39.052Z,14.40
2023-04-13T18:13:06.411Z,14.40
2023-04-13T18:15:33.758Z,14.30
2023-04-13T18:18:01.238Z,14.30
2023-04-13T18:20:29.975Z,14.20
2023-04-13T18:22:57.267Z,14.20
2023-04-13T18:25:24.810Z,14.20
2023-04-13T18:27:52.161Z,14.20
2023-04-13T18:30:20.088Z,14.10
2023-04-13T18:32:51.421Z,14.10
2023-04-13T18:35:19.159Z,14.00
2023-04-13T18:37:46.739Z,13.90
2023-04-13T18:40:14.211Z,13.90
2023-04-13T18:42:41.942Z,13.90
2023-04-13T18:45:09.828Z,13.80
2023-04-13T18:47:37.185Z,13.80
2023-04-13T18:50:05.935Z,13.80
2023-04-13T18:52:33.336Z,13.70
2023-04-13T18:55:00.934Z,13.60
2023-04-13T18:57:28.420Z,13.60
2023-04-13T18:59:56.829Z,13.60
2023-04-13T19:02:24.719Z,13.60
2023-04-13T19:04:52.802Z,13.50
2023-04-13T19:07:20.384Z,13.50
2023-04-13T19:09:47.859Z,13.50
2023-04-13T19:12:15.409Z,13.40
2023-04-13T19:14:42.724Z,13.30
2023-04-13T19:17:10.193Z,13.40
2023-04-13T19:19:37.534Z,13.40
2023-04-13T19:22:04.840Z,13.30
2023-04-13T19:24:32.339Z,13.40
2023-04-13T19:26:59.701Z,13.40
2023-04-13T19:29:30.081Z,13.30
2023-04-13T19:31:57.624Z,13.30
2023-04-13T19:34:25.128Z,13.30
2023-04-13T19:36:52.506Z,13.30
2023-04-13T19:39:21.524Z,13.30
2023-04-13T19:41:48.985Z,13.30
2023-04-13T19:44:16.893Z,13.30
2023-04-13T19:46:44.235Z,13.20
2023-04-13T19:49:12.084Z,13.20
2023-04-13T19:51:39.837Z,13.20
2023-04-13T19:54:07.446Z,13.20
2023-04-13T19:56:34.833Z,13.20
2023-04-13T19:59:04.628Z,13.10
2023-04-13T20:01:33.540Z,13.10
2023-04-13T20:04:03.605Z,13.00
2023-04-13T20:06:33.032Z,13.00
2023-04-13T20:09:10.884Z,12.90
2023-04-13T20:11:39.353Z,12.70
2023-04-13T20:14:06.793Z,12.70
2023-04-13T20:16:35.461Z,12.60
2023-04-13T20:19:02.885Z,12.50
2023-04-13T20:21:31.014Z,12.50
2023-04-13T20:23:59.054Z,12.40
2023-04-13T20:26:29.657Z,12.30
2023-04-13T20:28:58.540Z,12.30
2023-04-13T20:31:26.431Z,12.20
2023-04-13T20:33:54.041Z,12.10
2023-04-13T20:36:21.561Z,12.00
2023-04-13T20:38:49.978Z,12.00
2023-04-13T20:41:18.427Z,11.90
2023-04-13T20:43:46.023Z,11.90
2023-04-13T20:46:16.421Z,11.80
2023-04-13T20:51:14.379Z,11.70
2023-04-13T20:53:41.888Z,11.60
2023-04-13T20:56:09.431Z,11.50
2023-04-13T20:58:40.933Z,11.50
2023-04-13T21:01:08.253Z,11.50
2023-04-13T21:03:35.757Z,11.50
2023-04-13T21:06:03.225Z,11.50
2023-04-13T21:08:31.477Z,11.50
2023-04-13T21:10:58.776Z,11.40
2023-04-13T21:13:27.929Z,11.40
2023-04-13T21:15:55.288Z,11.30
2023-04-13T21:18:22.541Z,11.30
2023-04-13T21:20:49.924Z,11.30
2023-04-13T21:23:17.261Z,11.30
2023-04-13T21:25:44.834Z,11.20
2023-04-13T21:28:12.188Z,11.30
2023-04-13T21:30:39.746Z,11.30
2023-04-13T21:33:07.500Z,11.20
2023-04-13T21:35:34.987Z,11.20
2023-04-13T21:38:05.220Z,11.30
2023-04-13T21:40:35.864Z,11.20
2023-04-13T21:43:03.371Z,11.20
2023-04-13T21:45:30.621Z,11.30
2023-04-13T21:47:58.514Z,11.20
2023-04-13T21:50:26.615Z,11.20
2023-04-13T21:52:54.057Z,11.20
2023-04-13T21:55:22.007Z,11.10
2023-04-13T21:57:57.687Z,11.10
2023-04-13T22:00:54.693Z,11.20
2023-04-13T22:03:22.784Z,11.10
2023-04-13T22:05:50.281Z,11.10
2023-04-13T22:08:17.680Z,11.10
2023-04-13T22:10:45.900Z,11.10
2023-04-13T22:13:14.125Z,11.10
2023-04-13T22:15:43.262Z,11.00
2023-04-13T22:18:11.484Z,11.00
2023-04-13T22:20:39.011Z,11.00
2023-04-13T22:23:07.021Z,11.00
2023-04-13T22:25:34.436Z,11.00
2023-04-13T22:28:01.668Z,10.90
2023-04-13T22:30:29.782Z,10.90
2023-04-13T22:32:57.785Z,10.70
2023-04-13T22:35:29.876Z,10.70
2023-04-13T22:37:57.181Z,10.70
2023-04-13T22:40:24.673Z,10.70
2023-04-13T22:42:54.009Z,10.70
2023-04-13T22:45:21.397Z,10.70
2023-04-13T22:47:56.234Z,10.60
2023-04-13T22:50:32.663Z,10.60
2023-04-13T22:53:01.244Z,10.60
2023-04-13T22:55:28.418Z,10.50
2023-04-13T22:57:56.865Z,10.50
2023-04-13T23:00:27.143Z,10.50
2023-04-13T23:02:56.037Z,10.40
2023-04-13T23:05:25.260Z,10.40
2023-04-13T23:07:56.631Z,10.40
2023-04-13T23:10:27.926Z,10.30
2023-04-13T23:12:55.647Z,10.30
2023-04-13T23:15:23.135Z,10.30
2023-04-13T23:17:58.216Z,10.20
2023-04-13T23:20:27.981Z,10.20
2023-04-13T23:22:56.028Z,10.10
2023-04-13T23:25:23.718Z,10.00
2023-04-13T23:27:51.511Z,9.90
2023-04-13T23:30:20.274Z,9.90
2023-04-13T23:32:47.594Z,9.90
2023-04-13T23:35:15.049Z,9.80
2023-04-13T23:37:43.538Z,9.80
2023-04-13T23:40:11.405Z,9.80
2023-04-13T23:42:38.738Z,9.80
2023-04-13T23:45:06.597Z,9.80
2023-04-13T23:47:34.046Z,9.70
2023-04-13T23:50:01.675Z,9.70
2023-04-13T23:52:28.911Z,9.70
2023-04-13T23:54:56.197Z,9.60
2023-04-13T23:57:23.549Z,9.50
2023-04-13T23:59:56.530Z,9.50
